Time;durP1;ratioP1;P1;durP2;ratioP2;P2;SDS_P1;SDS_P2;PMS_P1;PMS_P2;Temp;Humidity;BMP_temperature;BMP_pressure;BME280_temperature;BME280_humidity;BME280_pressure;Samples;Min_cycle;Max_cycle;Signal;HPM_P1;HPM_P2
2020/12/06 00:00:33;;;;;;;0.70;0.60;;;3.20;99.90;;;3.54;100.00;-20778.34;5033787;28;20686;-68
2020/12/06 00:03:00;;;;;;;0.60;0.60;;;3.20;99.90;;;3.43;100.00;-20775.41;5033640;28;20519;-69
2020/12/06 00:05:27;;;;;;;0.60;0.60;;;3.10;99.90;;;3.31;100.00;-20772.19;5038752;28;20194;-68
2020/12/06 00:07:54;;;;;;;0.60;0.60;;;2.90;99.90;;;3.29;100.00;-20771.66;5048949;28;20198;-68
2020/12/06 00:10:21;;;;;;;0.60;0.60;;;2.90;99.90;;;3.28;100.00;-20771.38;5033477;28;20630;-69
2020/12/06 00:12:48;;;;;;;0.70;0.60;;;2.90;99.90;;;3.18;100.00;-20768.44;5034902;28;20194;-68
2020/12/06 00:15:15;;;;;;;0.60;0.60;;;2.80;99.90;;;3.05;100.00;-20764.94;5046949;28;20247;-68
2020/12/06 00:17:42;;;;;;;0.60;0.60;;;2.70;99.90;;;2.92;100.00;-20761.31;5053719;28;20181;-68
2020/12/06 00:20:10;;;;;;;0.63;0.50;;;2.60;99.90;;;2.77;100.00;-20757.41;5046880;28;20206;-68
2020/12/06 00:22:38;;;;;;;0.60;0.50;;;2.50;99.90;;;2.71;100.00;-20755.75;5034413;28;20240;-68
2020/12/06 00:25:05;;;;;;;2.08;1.15;;;2.40;99.90;;;2.62;100.00;-20753.22;5044216;28;20248;-69
2020/12/06 00:27:33;;;;;;;0.70;0.60;;;2.30;99.90;;;2.65;100.00;-20754.06;5034245;28;20631;-68
2020/12/06 00:30:00;;;;;;;0.70;0.60;;;2.30;99.90;;;2.67;100.00;-20754.75;5033747;28;20263;-67
2020/12/06 00:32:28;;;;;;;0.70;0.60;;;2.30;99.90;;;2.68;100.00;-20754.91;5033084;28;20221;-68
2020/12/06 00:34:56;;;;;;;0.60;0.60;;;2.40;99.90;;;2.58;100.00;-20752.13;5037521;28;20276;-67
2020/12/06 00:37:23;;;;;;;0.60;0.50;;;2.30;99.90;;;2.53;100.00;-20750.72;5053845;28;20184;-67
2020/12/06 00:39:50;;;;;;;0.80;0.80;;;2.20;99.90;;;2.49;100.00;-20749.59;5052530;28;20259;-68
2020/12/06 00:42:16;;;;;;;0.60;0.60;;;2.10;99.90;;;2.45;100.00;-20748.47;5053004;28;20289;-68
2020/12/06 00:44:43;;;;;;;0.70;0.60;;;2.10;99.90;;;2.39;100.00;-20747.09;5050690;28;20212;-68
2020/12/06 00:47:10;;;;;;;2.00;1.90;;;2.00;99.90;;;2.35;100.00;-20745.97;5051599;28;20203;-68
2020/12/06 00:49:37;;;;;;;0.60;0.60;;;2.00;99.90;;;2.37;100.00;-20746.53;5049837;28;20721;-68
2020/12/06 00:52:06;;;;;;;0.70;0.60;;;2.00;99.90;;;2.39;100.00;-20747.09;5032249;28;20190;-68
2020/12/06 00:54:33;;;;;;;0.60;0.60;;;1.90;99.90;;;2.41;100.00;-20747.66;5044878;28;20271;-68
2020/12/06 00:57:00;;;;;;;2.03;1.88;;;2.10;99.90;;;2.50;100.00;-20750.00;5050536;28;20584;-68
2020/12/06 00:59:29;;;;;;;0.60;0.50;;;2.10;99.90;;;2.50;100.00;-20749.88;5033213;28;20257;-68
2020/12/06 01:01:56;;;;;;;0.60;0.60;;;2.10;99.90;;;2.42;100.00;-20747.94;5032891;28;20244;-68
2020/12/06 01:04:23;;;;;;;0.70;0.65;;;2.00;99.90;;;2.42;100.00;-20747.94;5036234;28;20190;-69
2020/12/06 01:06:50;;;;;;;0.60;0.60;;;2.00;99.90;;;2.42;100.00;-20747.94;5033481;28;20228;-68
2020/12/06 01:09:18;;;;;;;0.60;0.60;;;2.00;99.90;;;2.37;100.00;-20746.53;5032127;28;20639;-68
2020/12/06 01:11:48;;;;;;;0.60;0.60;;;2.00;99.90;;;2.37;100.00;-20746.53;5032758;28;20206;-68
2020/12/06 01:14:15;;;;;;;0.60;0.60;;;2.00;99.90;;;2.32;100.00;-20745.13;5062178;28;20198;-68
2020/12/06 01:16:42;;;;;;;0.70;0.60;;;2.00;99.90;;;2.29;100.00;-20744.28;5046890;28;20201;-68
2020/12/06 01:19:09;;;;;;;0.60;0.50;;;1.90;99.90;;;2.27;100.00;-20743.72;5052202;28;20691;-68
2020/12/06 01:21:36;;;;;;;1.77;1.05;;;1.80;99.90;;;2.23;100.00;-20742.47;5054887;28;20213;-68
2020/12/06 01:24:03;;;;;;;0.60;0.60;;;1.80;99.90;;;2.20;100.00;-20741.78;5046917;28;20191;-69
2020/12/06 01:26:31;;;;;;;0.60;0.60;;;1.80;99.90;;;2.14;100.00;-20740.09;5056474;28;20209;-68
2020/12/06 01:28:58;;;;;;;0.70;0.60;;;1.80;99.90;;;2.11;100.00;-20739.28;5053950;28;20212;-69
2020/12/06 01:31:25;;;;;;;0.70;0.60;;;1.70;99.90;;;2.08;100.00;-20738.56;5056012;28;20181;-68
2020/12/06 01:33:52;;;;;;;0.60;0.55;;;1.70;99.90;;;2.14;100.00;-20740.25;5056082;28;20193;-68
2020/12/06 01:36:19;;;;;;;0.60;0.60;;;1.70;99.90;;;2.20;100.00;-20741.78;5040035;28;20248;-68
2020/12/06 01:38:46;;;;;;;0.60;0.60;;;1.80;99.90;;;2.25;100.00;-20743.19;5036687;28;20170;-68
2020/12/06 01:41:17;;;;;;;1.10;1.00;;;1.80;99.90;;;2.21;100.00;-20742.06;5040245;28;20229;-68
2020/12/06 01:43:54;;;;;;;0.60;0.60;;;1.80;99.90;;;2.16;100.00;-20740.66;5063079;28;20193;-69
2020/12/06 01:46:23;;;;;;;0.70;0.60;;;1.80;99.90;;;2.13;100.00;-20739.81;5045535;28;20186;-68
2020/12/06 01:48:50;;;;;;;0.60;0.60;;;1.70;99.90;;;2.10;100.00;-20738.97;5041425;28;20189;-69
2020/12/06 01:51:18;;;;;;;0.60;0.60;;;1.60;99.90;;;2.14;100.00;-20740.09;5050996;28;20572;-69
2020/12/06 01:53:47;;;;;;;0.60;0.50;;;1.70;99.90;;;2.15;100.00;-20740.38;5047885;28;20213;-68
2020/12/06 01:56:14;;;;;;;0.70;0.60;;;1.80;99.90;;;2.29;100.00;-20744.28;5054594;28;20221;-68
2020/12/06 01:58:41;;;;;;;0.68;0.60;;;1.80;99.90;;;2.28;100.00;-20743.88;5054884;28;20206;-68
2020/12/06 02:01:10;;;;;;;0.70;0.60;;;1.90;99.90;;;2.26;100.00;-20743.31;5052890;28;20237;-68
2020/12/06 02:03:38;;;;;;;0.70;0.60;;;1.90;99.90;;;2.26;100.00;-20743.31;5054444;28;20247;-68
2020/12/06 02:06:06;;;;;;;0.60;0.50;;;1.90;99.90;;;2.22;100.00;-20742.19;5052297;28;20612;-68
2020/12/06 02:08:34;;;;;;;0.60;0.50;;;1.80;99.90;;;2.26;100.00;-20743.31;5052202;28;20186;-68
2020/12/06 02:11:02;;;;;;;0.60;0.50;;;1.80;99.90;;;2.29;100.00;-20744.28;5035662;28;20237;-68
2020/12/06 02:13:29;;;;;;;0.60;0.50;;;1.80;99.90;;;2.35;100.00;-20745.97;5035948;28;20659;-68
2020/12/06 02:15:56;;;;;;;0.60;0.50;;;1.90;99.90;;;2.36;100.00;-20746.25;5034468;28;20186;-68
2020/12/06 02:18:24;;;;;;;0.60;0.50;;;1.90;99.90;;;2.42;100.00;-20747.94;5035729;28;20228;-68
2020/12/06 02:20:58;;;;;;;0.60;0.60;;;1.90;99.90;;;2.49;100.00;-20749.59;5042856;28;20202;-69
2020/12/06 02:23:25;;;;;;;0.60;0.50;;;1.90;99.90;;;2.57;100.00;-20751.84;5039677;28;20264;-66
2020/12/06 02:25:52;;;;;;;0.60;0.50;;;2.00;99.90;;;2.72;100.00;-20755.88;5048961;28;20214;-69
2020/12/06 02:28:19;;;;;;;0.63;0.57;;;2.20;99.90;;;2.71;100.00;-20755.59;5058338;28;20187;-69
2020/12/06 02:30:47;;;;;;;0.60;0.50;;;2.20;99.90;;;2.81;100.00;-20758.53;5036643;28;20182;-69
2020/12/06 02:33:14;;;;;;;0.60;0.50;;;2.20;99.90;;;2.79;100.00;-20757.84;5041363;28;20198;-68
2020/12/06 02:35:41;;;;;;;0.60;0.50;;;2.20;99.90;;;2.82;100.00;-20758.66;5040963;28;20226;-66
2020/12/06 02:38:09;;;;;;;0.70;0.60;;;2.20;99.90;;;2.82;100.00;-20758.81;5035455;28;20213;-67
2020/12/06 02:40:37;;;;;;;0.60;0.50;;;2.30;99.90;;;2.90;100.00;-20761.03;5035471;28;20726;-69
2020/12/06 02:43:05;;;;;;;0.60;0.60;;;2.30;99.90;;;2.93;100.00;-20761.59;5051921;28;20252;-67
2020/12/06 02:45:32;;;;;;;0.60;0.50;;;2.30;99.90;;;2.87;100.00;-20760.22;5054808;28;20247;-68
2020/12/06 02:47:59;;;;;;;0.60;0.57;;;2.30;99.90;;;2.90;100.00;-20760.91;5054867;28;20600;-69
2020/12/06 02:50:27;;;;;;;0.60;0.60;;;2.20;99.90;;;2.91;100.00;-20761.19;5064659;28;20268;-66
2020/12/06 02:52:57;;;;;;;0.60;0.50;;;2.20;99.90;;;2.92;100.00;-20761.31;5053680;28;20231;-67
2020/12/06 02:55:25;;;;;;;0.60;0.50;;;2.20;99.90;;;2.88;100.00;-20760.50;5035358;28;20218;-66
2020/12/06 02:57:53;;;;;;;0.60;0.50;;;2.20;99.90;;;2.86;100.00;-20759.94;5052023;28;20654;-67
2020/12/06 03:00:20;;;;;;;0.70;0.60;;;2.30;99.90;;;2.88;100.00;-20760.34;5055166;28;20205;-67
2020/12/06 03:02:47;;;;;;;0.60;0.60;;;2.30;99.90;;;2.86;100.00;-20759.78;5045745;28;20614;-67
2020/12/06 03:05:14;;;;;;;0.60;0.60;;;2.20;99.90;;;2.82;100.00;-20758.66;5042780;28;20204;-67
2020/12/06 03:07:41;;;;;;;0.60;0.60;;;2.20;99.90;;;2.79;100.00;-20757.97;5035074;28;20177;-67
2020/12/06 03:10:08;;;;;;;0.70;0.65;;;2.20;99.90;;;2.75;100.00;-20756.84;5034862;28;20305;-66
2020/12/06 03:12:36;;;;;;;0.60;0.50;;;2.20;99.90;;;2.74;100.00;-20756.59;5034890;28;20186;-67
2020/12/06 03:15:04;;;;;;;0.70;0.70;;;2.10;99.90;;;2.75;100.00;-20756.84;5033868;28;20209;-67
2020/12/06 03:17:31;;;;;;;0.60;0.60;;;2.20;99.90;;;2.79;100.00;-20757.97;5037593;28;20269;-67
2020/12/06 03:19:58;;;;;;;0.60;0.50;;;2.20;99.90;;;2.80;100.00;-20758.13;5038788;28;20274;-67
2020/12/06 03:22:31;;;;;;;0.60;0.60;;;2.20;99.90;;;2.83;100.00;-20759.09;5037688;28;20205;-67
2020/12/06 03:25:00;;;;;;;0.60;0.60;;;2.20;99.90;;;2.84;100.00;-20759.38;5036510;28;20210;-66
2020/12/06 03:27:28;;;;;;;0.70;0.60;;;2.20;99.90;;;2.85;100.00;-20759.66;5034730;28;20194;-66
2020/12/06 03:29:56;;;;;;;0.70;0.60;;;2.20;99.90;;;2.86;100.00;-20759.94;5035029;28;20206;-67
2020/12/06 03:32:24;;;;;;;0.60;0.52;;;2.30;99.90;;;2.86;100.00;-20759.94;5038186;28;20268;-67
2020/12/06 03:34:51;;;;;;;0.68;0.60;;;2.20;99.90;;;2.85;100.00;-20759.66;5048337;28;20278;-67
2020/12/06 03:37:18;;;;;;;0.60;0.60;;;2.20;99.90;;;2.89;100.00;-20760.75;5034167;28;20212;-68
2020/12/06 03:39:45;;;;;;;0.60;0.60;;;2.20;99.90;;;2.93;100.00;-20761.59;5045996;28;20587;-67
2020/12/06 03:42:12;;;;;;;0.63;0.63;;;2.30;99.90;;;2.96;100.00;-20762.59;5053297;28;20308;-67
2020/12/06 03:44:41;;;;;;;0.70;0.60;;;2.30;99.90;;;3.08;100.00;-20765.78;5054385;28;20276;-66
2020/12/06 03:47:09;;;;;;;0.60;0.60;;;2.40;99.90;;;3.17;100.00;-20768.31;5044180;28;20280;-67
2020/12/06 03:49:36;;;;;;;0.60;0.60;;;2.50;99.90;;;3.23;100.00;-20769.97;5032555;28;20221;-67
2020/12/06 03:52:03;;;;;;;0.60;0.60;;;2.60;99.90;;;3.22;100.00;-20769.69;5034249;28;20185;-66
2020/12/06 03:54:30;;;;;;;0.60;0.60;;;2.60;99.90;;;3.25;100.00;-20770.41;5034377;28;20281;-66
2020/12/06 03:56:57;;;;;;;0.60;0.60;;;2.50;99.90;;;3.31;100.00;-20772.19;5033726;28;20215;-68
2020/12/06 03:59:24;;;;;;;0.60;0.60;;;2.60;99.90;;;3.41;100.00;-20774.84;5033569;28;20201;-67
2020/12/06 04:01:51;;;;;;;0.60;0.60;;;2.70;99.90;;;3.38;100.00;-20774.16;5034121;28;20208;-67
2020/12/06 04:04:19;;;;;;;0.60;0.60;;;2.70;99.90;;;3.39;100.00;-20774.44;5038272;28;20226;-67
2020/12/06 04:06:46;;;;;;;0.60;0.50;;;2.70;99.90;;;3.32;100.00;-20772.50;5049860;28;20351;-69
2020/12/06 04:09:12;;;;;;;0.63;0.60;;;2.70;99.90;;;3.29;100.00;-20771.66;5034882;28;20182;-67
2020/12/06 04:11:41;;;;;;;0.60;0.60;;;2.60;99.90;;;3.28;100.00;-20771.38;5033610;28;20232;-67
2020/12/06 04:14:07;;;;;;;0.60;0.60;;;2.60;99.90;;;3.22;100.00;-20769.69;5034126;28;20264;-67
2020/12/06 04:16:34;;;;;;;0.95;0.95;;;2.60;99.90;;;3.14;100.00;-20767.47;5034642;28;20186;-67
2020/12/06 04:19:01;;;;;;;0.60;0.60;;;2.50;99.90;;;3.06;100.00;-20765.22;5033860;28;20547;-68
2020/12/06 04:21:30;;;;;;;0.70;0.60;;;2.50;99.90;;;3.11;100.00;-20766.63;5037174;28;20210;-68
2020/12/06 04:23:56;;;;;;;0.70;0.60;;;2.50;99.90;;;3.09;100.00;-20766.06;5041507;28;20221;-66
2020/12/06 04:26:23;;;;;;;0.60;0.60;;;2.50;99.90;;;3.04;100.00;-20764.81;5032163;28;20210;-67
2020/12/06 04:28:50;;;;;;;0.70;0.60;;;2.50;99.90;;;3.01;100.00;-20763.97;5048673;28;20523;-68
2020/12/06 04:31:17;;;;;;;0.63;0.60;;;2.50;99.90;;;3.06;100.00;-20765.22;5053200;28;20255;-67
2020/12/06 04:33:44;;;;;;;0.60;0.60;;;2.50;99.90;;;3.07;100.00;-20765.66;5064629;28;20225;-67
2020/12/06 04:36:11;;;;;;;0.60;0.60;;;2.50;99.90;;;3.06;100.00;-20765.22;5043406;28;20765;-67
2020/12/06 04:38:38;;;;;;;0.60;0.60;;;2.50;99.90;;;3.12;100.00;-20767.03;5033628;28;20209;-67
2020/12/06 04:41:06;;;;;;;0.60;0.50;;;2.60;99.90;;;3.19;100.00;-20768.84;5034941;28;20200;-67
2020/12/06 04:43:35;;;;;;;0.60;0.50;;;2.60;99.90;;;3.19;100.00;-20768.84;5037341;28;20229;-67
2020/12/06 04:46:02;;;;;;;0.60;0.60;;;2.60;99.90;;;3.18;100.00;-20768.59;5032100;28;20235;-67
2020/12/06 04:48:45;;;;;;;0.68;0.60;;;2.60;99.90;;;3.18;100.00;-20768.44;5049339;28;20215;-67
2020/12/06 04:51:14;;;;;;;0.70;0.70;;;2.50;99.90;;;3.18;100.00;-20768.44;5038935;28;20576;-67
2020/12/06 04:53:57;;;;;;;0.60;0.60;;;2.60;99.90;;;3.26;100.00;-20770.81;5036187;28;20693;-67
2020/12/06 04:56:24;;;;;;;0.80;0.77;;;2.60;99.90;;;3.31;100.00;-20772.19;5037332;28;20238;-67
2020/12/06 04:58:52;;;;;;;0.60;0.50;;;2.70;99.90;;;3.38;100.00;-20774.16;5055531;28;20276;-67
2020/12/06 05:01:20;;;;;;;0.70;0.60;;;2.80;99.90;;;3.44;100.00;-20775.69;5057012;28;20682;-67
2020/12/06 05:03:54;;;;;;;0.60;0.60;;;2.80;99.90;;;3.56;100.00;-20778.91;5055773;28;20178;-67
2020/12/06 05:06:23;;;;;;;0.70;0.60;;;2.90;99.90;;;3.61;100.00;-20780.28;5039477;28;20212;-67
2020/12/06 05:08:52;;;;;;;0.65;0.60;;;3.00;99.90;;;3.66;100.00;-20781.69;5042203;28;20218;-66
2020/12/06 05:11:20;;;;;;;0.60;0.55;;;3.00;99.90;;;3.69;100.00;-20782.38;5056880;28;20630;-67
2020/12/06 05:13:46;;;;;;;0.60;0.52;;;3.00;99.90;;;3.74;100.00;-20783.91;5055648;28;20281;-67
2020/12/06 05:16:15;;;;;;;0.60;0.60;;;3.10;99.90;;;3.79;100.00;-20785.31;5051489;28;20193;-67
2020/12/06 05:18:42;;;;;;;0.68;0.60;;;3.10;99.90;;;3.85;100.00;-20787.00;5050454;28;20204;-67
2020/12/06 05:21:09;;;;;;;2.15;0.98;;;3.10;99.90;;;3.83;100.00;-20786.28;5055123;28;20264;-67
2020/12/06 05:23:36;;;;;;;0.60;0.60;;;3.20;99.90;;;3.86;100.00;-20787.25;5044710;28;20213;-67
2020/12/06 05:26:04;;;;;;;0.60;0.50;;;3.20;99.90;;;3.82;100.00;-20786.16;5053914;28;20643;-67
2020/12/06 05:28:31;;;;;;;0.60;0.60;;;3.10;99.90;;;3.81;100.00;-20785.72;5047222;28;20519;-66
2020/12/06 05:31:02;;;;;;;1.33;0.97;;;3.10;99.90;;;3.74;100.00;-20783.91;5047002;28;20449;-67
2020/12/06 05:33:30;;;;;;;0.60;0.50;;;3.00;99.90;;;3.68;100.00;-20782.09;5047409;28;20438;-67
2020/12/06 05:36:00;;;;;;;0.60;0.50;;;3.00;99.90;;;3.63;100.00;-20781.00;5038126;28;20482;-68
2020/12/06 05:38:27;;;;;;;1.20;1.10;;;2.90;99.90;;;3.61;100.00;-20780.28;5055716;28;20481;-67
2020/12/06 05:40:57;;;;;;;0.60;0.50;;;2.90;99.90;;;3.55;100.00;-20778.63;5056250;28;20809;-67
2020/12/06 05:43:28;;;;;;;0.60;0.50;;;2.90;99.90;;;3.54;100.00;-20778.34;5055575;28;20455;-67
2020/12/06 05:46:06;;;;;;;0.60;0.60;;;2.90;99.90;;;3.58;100.00;-20779.59;5056578;28;20210;-67
2020/12/06 05:48:34;;;;;;;0.70;0.60;;;2.90;99.90;;;3.57;100.00;-20779.31;5056224;28;20178;-67
2020/12/06 05:51:01;;;;;;;0.70;0.70;;;2.90;99.90;;;3.63;100.00;-20780.84;5045584;28;20436;-67
2020/12/06 05:53:30;;;;;;;0.60;0.50;;;3.00;99.90;;;3.64;100.00;-20781.13;5052739;28;20533;-67
2020/12/06 05:56:15;;;;;;;0.63;0.60;;;3.00;99.90;;;3.66;100.00;-20781.69;5056389;28;20440;-67
2020/12/06 05:58:45;;;;;;;0.60;0.60;;;2.90;99.90;;;3.67;100.00;-20781.81;5056306;28;20462;-67
2020/12/06 06:01:13;;;;;;;0.82;0.82;;;2.90;99.90;;;3.65;100.00;-20781.41;5045558;28;20202;-67
2020/12/06 06:03:43;;;;;;;0.70;0.60;;;3.00;99.90;;;3.65;100.00;-20781.28;5035836;28;20639;-68
2020/12/06 06:06:20;;;;;;;0.60;0.60;;;2.90;99.90;;;3.59;100.00;-20779.75;5048217;28;20547;-67
2020/12/06 06:08:51;;;;;;;0.60;0.60;;;2.90;99.90;;;3.61;100.00;-20780.28;5056223;28;20454;-67
2020/12/06 06:11:24;;;;;;;0.60;0.50;;;2.90;99.90;;;3.64;100.00;-20781.13;5056016;28;20502;-67
2020/12/06 06:13:55;;;;;;;0.60;0.60;;;2.90;99.90;;;3.66;100.00;-20781.69;5055288;28;20443;-67
2020/12/06 06:16:25;;;;;;;0.60;0.53;;;2.90;99.90;;;3.64;100.00;-20781.13;5055075;28;20436;-67
2020/12/06 06:18:53;;;;;;;0.63;0.63;;;2.90;99.90;;;3.63;100.00;-20781.00;5054401;28;20439;-67
2020/12/06 06:21:26;;;;;;;0.67;0.60;;;2.90;99.90;;;3.63;100.00;-20780.84;5051718;28;20521;-67
2020/12/06 06:23:57;;;;;;;0.70;0.70;;;2.90;99.90;;;3.66;100.00;-20781.56;5055367;28;20527;-66
2020/12/06 06:26:29;;;;;;;0.63;0.57;;;3.00;99.90;;;3.64;100.00;-20781.13;5054279;28;20459;-66
2020/12/06 06:28:57;;;;;;;0.70;0.60;;;2.90;99.90;;;3.66;100.00;-20781.69;5055501;28;20767;-66
2020/12/06 06:31:30;;;;;;;0.60;0.60;;;3.00;99.90;;;3.70;100.00;-20782.66;5055673;28;20431;-66
2020/12/06 06:33:57;;;;;;;0.70;0.60;;;3.00;99.90;;;3.71;100.00;-20783.09;5053558;28;20499;-67
2020/12/06 06:36:27;;;;;;;0.60;0.60;;;3.00;99.90;;;3.68;100.00;-20782.25;5052450;28;20607;-68
2020/12/06 06:38:55;;;;;;;0.60;0.50;;;3.00;99.90;;;3.64;100.00;-20781.13;5054173;28;20276;-67
2020/12/06 06:41:26;;;;;;;0.63;0.60;;;3.00;99.90;;;3.63;100.00;-20780.84;5055493;28;20951;-67
2020/12/06 06:44:01;;;;;;;0.65;0.57;;;2.90;99.90;;;3.61;100.00;-20780.28;5046411;28;20651;-66
2020/12/06 06:46:33;;;;;;;0.60;0.50;;;3.00;99.90;;;3.54;100.00;-20778.34;5035594;28;20214;-67
2020/12/06 06:49:08;;;;;;;0.70;0.60;;;2.90;99.90;;;3.48;100.00;-20776.66;5036044;28;20429;-67
2020/12/06 06:51:36;;;;;;;0.70;0.60;;;2.80;99.90;;;3.49;100.00;-20777.09;5034486;28;20194;-67
2020/12/06 06:54:06;;;;;;;0.60;0.60;;;2.90;99.90;;;3.49;100.00;-20776.94;5035147;28;20244;-67
2020/12/06 06:56:48;;;;;;;1.90;1.80;;;2.90;99.90;;;3.46;100.00;-20776.25;5037698;28;20674;-67
2020/12/06 06:59:30;;;;;;;0.60;0.50;;;2.80;99.90;;;3.40;100.00;-20774.56;5045565;28;20495;-67
2020/12/06 07:01:57;;;;;;;1.50;1.40;;;2.80;99.90;;;3.48;100.00;-20776.66;5040786;28;20202;-68
2020/12/06 07:04:25;;;;;;;0.70;0.60;;;2.80;99.90;;;3.41;100.00;-20774.72;5046778;28;20198;-69
2020/12/06 07:06:52;;;;;;;0.60;0.50;;;2.80;99.90;;;3.39;100.00;-20774.31;5053462;28;20211;-67
2020/12/06 07:09:23;;;;;;;2.05;1.40;;;2.70;99.90;;;3.38;100.00;-20774.16;5047550;28;20202;-67
2020/12/06 07:11:53;;;;;;;0.65;0.63;;;2.70;99.90;;;3.43;100.00;-20775.28;5045941;28;20287;-67
2020/12/06 07:14:24;;;;;;;0.60;0.60;;;2.80;99.90;;;3.43;100.00;-20775.28;5043696;28;20277;-68
2020/12/06 07:16:51;;;;;;;1.10;1.00;;;2.80;99.90;;;3.48;100.00;-20776.81;5045450;28;20239;-67
2020/12/06 07:19:18;;;;;;;0.60;0.60;;;2.80;99.90;;;3.53;100.00;-20778.06;5039143;28;20186;-67
2020/12/06 07:21:48;;;;;;;0.60;0.50;;;2.90;99.90;;;3.52;100.00;-20777.78;5036643;28;20726;-67
2020/12/06 07:24:17;;;;;;;0.70;0.60;;;2.90;99.90;;;3.51;100.00;-20777.66;5041121;28;20228;-68
2020/12/06 07:26:45;;;;;;;0.70;0.60;;;2.90;99.90;;;3.53;100.00;-20778.06;5041420;28;20672;-68
2020/12/06 07:29:13;;;;;;;0.60;0.60;;;2.90;99.90;;;3.51;100.00;-20777.50;5043317;28;20194;-69
2020/12/06 07:31:41;;;;;;;0.60;0.60;;;2.90;99.90;;;3.54;100.00;-20778.34;5047761;28;20186;-67
2020/12/06 07:34:08;;;;;;;0.70;0.63;;;2.90;99.90;;;3.56;100.00;-20779.03;5037521;28;20281;-67
2020/12/06 07:36:36;;;;;;;0.60;0.60;;;2.90;99.90;;;3.61;100.00;-20780.44;5046746;28;20634;-68
2020/12/06 07:39:13;;;;;;;0.70;0.60;;;2.90;99.90;;;3.62;100.00;-20780.56;5053819;28;20194;-67
2020/12/06 07:41:48;;;;;;;0.60;0.60;;;3.00;99.90;;;3.64;100.00;-20781.13;5051590;28;20225;-67
2020/12/06 07:44:15;;;;;;;0.60;0.60;;;3.00;99.90;;;3.67;100.00;-20781.97;5035801;28;20196;-67
2020/12/06 07:46:43;;;;;;;0.60;0.60;;;3.00;99.90;;;3.67;100.00;-20781.81;5043415;28;20240;-67
2020/12/06 07:49:10;;;;;;;0.70;0.63;;;3.00;99.90;;;3.75;100.00;-20784.06;5050347;28;20193;-66
2020/12/06 07:51:38;;;;;;;0.60;0.50;;;3.00;99.90;;;3.75;100.00;-20784.19;5050921;28;20490;-68
2020/12/06 07:54:05;;;;;;;0.60;0.60;;;3.10;99.90;;;3.75;100.00;-20784.19;5033970;28;20428;-67
2020/12/06 07:56:35;;;;;;;0.60;0.60;;;3.10;99.90;;;3.80;100.00;-20785.59;5049174;28;20555;-69
2020/12/06 07:59:18;;;;;;;0.60;0.60;;;3.10;99.90;;;3.90;100.00;-20788.09;5046127;28;20444;-67
2020/12/06 08:01:48;;;;;;;0.63;0.60;;;3.20;99.90;;;3.99;100.00;-20790.63;5053311;28;20455;-67
2020/12/06 08:04:25;;;;;;;0.60;0.60;;;3.30;99.90;;;4.05;100.00;-20792.28;5053435;28;20412;-67
2020/12/06 08:07:00;;;;;;;0.60;0.60;;;3.30;99.90;;;4.13;100.00;-20794.50;5053092;28;20193;-67
2020/12/06 08:09:31;;;;;;;0.67;0.63;;;3.30;99.90;;;4.25;100.00;-20797.84;5044734;28;20440;-67
2020/12/06 08:12:02;;;;;;;0.60;0.57;;;3.40;99.90;;;4.43;100.00;-20802.59;5033979;28;20932;-68
2020/12/06 08:14:29;;;;;;;0.70;0.60;;;3.40;99.90;;;4.42;100.00;-20802.47;5035873;28;20464;-67
2020/12/06 08:16:59;;;;;;;0.60;0.50;;;3.40;99.90;;;4.30;100.00;-20799.25;5041026;28;20451;-67
2020/12/06 08:19:27;;;;;;;0.60;0.57;;;3.50;99.90;;;4.38;100.00;-20801.19;5048224;28;20420;-70
2020/12/06 08:21:59;;;;;;;0.60;0.60;;;3.50;99.90;;;4.45;100.00;-20803.16;5053250;28;20927;-66
2020/12/06 08:24:30;;;;;;;0.60;0.50;;;3.50;99.90;;;4.47;100.00;-20803.72;5039913;28;20483;-67
2020/12/06 08:27:00;;;;;;;0.60;0.60;;;3.60;99.90;;;4.50;100.00;-20804.69;5032638;28;20426;-67
2020/12/06 08:29:39;;;;;;;0.60;0.50;;;3.60;99.90;;;4.63;100.00;-20808.16;5038904;28;20447;-67
2020/12/06 08:32:07;;;;;;;0.63;0.50;;;3.70;99.90;;;4.72;100.00;-20810.69;5039406;28;20439;-69
2020/12/06 08:34:34;;;;;;;1.33;1.23;;;3.70;99.90;;;4.83;100.00;-20813.59;5052008;28;20508;-68
2020/12/06 08:37:18;;;;;;;0.60;0.50;;;3.80;99.90;;;4.92;100.00;-20815.97;5033559;28;20429;-68
2020/12/06 08:39:47;;;;;;;0.80;0.70;;;3.90;99.90;;;5.15;100.00;-20822.22;5033322;28;20776;-68
2020/12/06 08:42:20;;;;;;;0.60;0.60;;;3.90;99.90;;;5.18;100.00;-20823.06;5046299;28;20478;-68
2020/12/06 08:44:56;;;;;;;0.70;0.70;;;4.00;99.90;;;5.17;100.00;-20822.94;5050027;28;20834;-68
2020/12/06 08:47:38;;;;;;;0.70;0.60;;;4.10;99.90;;;5.06;100.00;-20820.00;5041747;28;20464;-68
2020/12/06 08:50:11;;;;;;;0.67;0.50;;;4.20;99.90;;;5.15;100.00;-20822.38;5044083;28;20432;-68
2020/12/06 08:52:38;;;;;;;0.60;0.60;;;4.20;99.90;;;5.37;100.00;-20828.22;5044004;28;20460;-69
2020/12/06 08:55:26;;;;;;;1.00;0.90;;;4.20;99.90;;;5.51;100.00;-20832.25;5035575;28;20453;-69
2020/12/06 08:57:55;;;;;;;0.60;0.50;;;4.20;99.90;;;5.72;100.00;-20837.97;5036424;28;20968;-67
2020/12/06 09:00:26;;;;;;;0.60;0.60;;;4.20;99.90;;;5.71;100.00;-20837.69;5034244;28;20904;-67
2020/12/06 09:02:57;;;;;;;0.60;0.60;;;4.30;99.90;;;5.89;100.00;-20842.41;5043342;28;20517;-67
2020/12/06 09:05:24;;;;;;;0.60;0.50;;;4.40;99.90;;;6.09;100.00;-20847.97;5046812;28;20844;-67
2020/12/06 09:07:51;;;;;;;0.60;0.50;;;4.40;99.90;;;6.27;100.00;-20852.97;5045898;28;20970;-70
2020/12/06 09:10:18;;;;;;;0.70;0.60;;;4.40;99.90;;;6.28;100.00;-20853.25;5052868;28;20831;-69
2020/12/06 09:12:45;;;;;;;0.60;0.53;;;4.50;99.90;;;6.22;100.00;-20851.44;5051614;28;20443;-69
2020/12/06 09:15:12;;;;;;;0.60;0.60;;;4.60;99.90;;;6.45;100.00;-20857.84;5041734;28;20440;-68
2020/12/06 09:17:39;;;;;;;1.00;1.00;;;4.70;99.90;;;6.37;100.00;-20855.47;5037672;28;20935;-68
2020/12/06 09:20:07;;;;;;;0.70;0.60;;;4.80;99.90;;;6.48;100.00;-20858.53;5046007;28;20454;-69
2020/12/06 09:22:35;;;;;;;0.70;0.60;;;4.70;99.90;;;6.44;100.00;-20857.44;5039873;28;20539;-69
2020/12/06 09:25:03;;;;;;;0.70;0.57;;;4.70;99.90;;;6.33;100.00;-20854.50;5041413;28;20560;-68
2020/12/06 09:27:30;;;;;;;0.70;0.60;;;4.50;99.90;;;5.86;100.00;-20841.72;5042347;28;20462;-68
2020/12/06 09:29:57;;;;;;;0.70;0.60;;;4.50;99.90;;;5.87;100.00;-20842.00;5041050;28;20577;-69
2020/12/06 09:32:24;;;;;;;0.70;0.60;;;4.50;99.90;;;5.88;100.00;-20842.13;5043035;28;20469;-67
2020/12/06 09:34:50;;;;;;;0.63;0.60;;;4.60;99.90;;;5.99;100.00;-20845.19;5042268;28;20804;-67
2020/12/06 09:37:19;;;;;;;0.70;0.50;;;4.70;99.90;;;6.28;100.00;-20853.25;5046700;28;20944;-67
2020/12/06 09:39:46;;;;;;;0.70;0.50;;;4.80;99.90;;;6.28;100.00;-20853.25;5043149;28;20487;-67
2020/12/06 09:42:13;;;;;;;0.70;0.60;;;4.90;99.90;;;6.57;100.00;-20860.91;5045598;28;20471;-67
2020/12/06 09:44:40;;;;;;;0.60;0.60;;;4.90;99.90;;;6.79;100.00;-20867.03;5046282;28;20436;-69
2020/12/06 09:47:07;;;;;;;0.70;0.60;;;4.90;99.90;;;6.71;100.00;-20864.78;5043730;28;20822;-68
2020/12/06 09:49:35;;;;;;;0.70;0.60;;;4.90;99.90;;;6.68;100.00;-20863.97;5044956;28;20431;-69
2020/12/06 09:52:03;;;;;;;0.70;0.60;;;5.00;99.90;;;6.81;100.00;-20867.44;5046769;28;20940;-69
2020/12/06 09:54:31;;;;;;;1.20;1.10;;;5.00;99.90;;;6.67;100.00;-20863.81;5050932;28;20497;-69
2020/12/06 09:56:58;;;;;;;0.60;0.60;;;5.10;99.90;;;6.64;100.00;-20862.84;5038157;28;20454;-68
2020/12/06 09:59:25;;;;;;;0.90;0.90;;;5.20;99.90;;;6.75;100.00;-20866.03;5040115;28;20810;-67
2020/12/06 10:01:52;;;;;;;1.53;1.43;;;5.30;99.90;;;6.73;100.00;-20865.50;5045249;28;20985;-67
2020/12/06 10:04:19;;;;;;;1.07;0.97;;;5.30;99.90;;;6.92;100.00;-20870.50;5050192;28;20953;-67
2020/12/06 10:06:46;;;;;;;1.43;1.33;;;5.20;99.90;;;7.08;100.00;-20874.94;5036902;28;20452;-69
2020/12/06 10:09:13;;;;;;;0.70;0.60;;;5.30;99.90;;;6.96;100.00;-20871.75;5045979;28;20923;-69
2020/12/06 10:11:41;;;;;;;0.70;0.60;;;5.30;99.90;;;7.22;100.00;-20878.81;5038616;28;20471;-67
2020/12/06 10:14:08;;;;;;;3.43;1.00;;;5.30;99.90;;;7.32;100.00;-20881.47;5054413;28;20494;-70
2020/12/06 10:16:35;;;;;;;0.60;0.50;;;5.30;99.90;;;7.25;100.00;-20879.66;5042800;28;20490;-67
2020/12/06 10:19:02;;;;;;;0.70;0.50;;;5.40;99.90;;;7.32;100.00;-20881.31;5040084;28;20445;-67
2020/12/06 10:21:29;;;;;;;0.60;0.50;;;5.50;99.90;;;7.05;100.00;-20874.09;5045456;28;20784;-67
2020/12/06 10:23:56;;;;;;;0.70;0.60;;;5.60;99.90;;;7.31;100.00;-20881.19;5045465;28;20512;-67
2020/12/06 10:26:23;;;;;;;0.70;0.60;;;5.50;99.90;;;7.32;100.00;-20881.31;5036121;28;20454;-67